sensor_id;sensor_type;location;lat;lon;timestamp;pressure;altitude;pressure_sealevel;temperature;humidity
62103;BME280;48077;48.104;11.702;2023-01-29T00:02:14;96339.16;;;-1.79;100.00
62103;BME280;48077;48.104;11.702;2023-01-29T00:04:37;96346.16;;;-1.79;100.00
62103;BME280;48077;48.104;11.702;2023-01-29T00:07:00;96359.41;;;-1.81;100.00
62103;BME280;48077;48.104;11.702;2023-01-29T00:09:24;96324.00;;;-1.95;100.00
62103;BME280;48077;48.104;11.702;2023-01-29T00:11:47;96339.72;;;-1.85;100.00
62103;BME280;48077;48.104;11.702;2023-01-29T00:14:10;96345.47;;;-1.81;100.00
62103;BME280;48077;48.104;11.702;2023-01-29T00:16:34;96338.16;;;-1.88;100.00
62103;BME280;48077;48.104;11.702;2023-01-29T00:18:57;96332.00;;;-1.87;100.00
62103;BME280;48077;48.104;11.702;2023-01-29T00:21:21;96345.47;;;-1.81;100.00
62103;BME280;48077;48.104;11.702;2023-01-29T00:23:45;96334.72;;;-1.88;100.00
62103;BME280;48077;48.104;11.702;2023-01-29T00:26:09;96357.72;;;-1.82;100.00
62103;BME280;48077;48.104;11.702;2023-01-29T00:28:33;96357.59;;;-1.80;100.00
62103;BME280;48077;48.104;11.702;2023-01-29T00:30:56;96347.41;;;-1.84;100.00
62103;BME280;48077;48.104;11.702;2023-01-29T00:33:19;96358.56;;;-1.81;100.00
62103;BME280;48077;48.104;11.702;2023-01-29T00:35:43;96358.84;;;-1.85;100.00
62103;BME280;48077;48.104;11.702;2023-01-29T00:38:06;96349.03;;;-1.92;100.00
62103;BME280;48077;48.104;11.702;2023-01-29T00:40:30;96365.00;;;-1.86;100.00
62103;BME280;48077;48.104;11.702;2023-01-29T00:43:13;96368.72;;;-1.88;100.00
62103;BME280;48077;48.104;11.702;2023-01-29T00:45:55;96360.88;;;-1.88;100.00
62103;BME280;48077;48.104;11.702;2023-01-29T00:48:18;96351.78;;;-1.94;100.00
62103;BME280;48077;48.104;11.702;2023-01-29T00:50:41;96364.19;;;-1.86;100.00
62103;BME280;48077;48.104;11.702;2023-01-29T00:53:05;96359.38;;;-1.91;100.00
62103;BME280;48077;48.104;11.702;2023-01-29T00:55:28;96364.31;;;-1.88;100.00
62103;BME280;48077;48.104;11.702;2023-01-29T00:57:51;96365.69;;;-1.84;100.00
62103;BME280;48077;48.104;11.702;2023-01-29T01:00:16;96370.94;;;-1.84;100.00
62103;BME280;48077;48.104;11.702;2023-01-29T01:02:40;96371.09;;;-1.85;100.00
62103;BME280;48077;48.104;11.702;2023-01-29T01:05:22;96365.28;;;-1.89;100.00
62103;BME280;48077;48.104;11.702;2023-01-29T01:07:48;96367.34;;;-1.92;100.00
62103;BME280;48077;48.104;11.702;2023-01-29T01:10:15;96365.69;;;-1.93;100.00
62103;BME280;48077;48.104;11.702;2023-01-29T01:12:46;96361.16;;;-1.91;100.00
62103;BME280;48077;48.104;11.702;2023-01-29T01:15:10;96363.91;;;-1.93;100.00
62103;BME280;48077;48.104;11.702;2023-01-29T01:17:33;96358.69;;;-1.93;100.00
62103;BME280;48077;48.104;11.702;2023-01-29T01:19:57;96353.69;;;-1.96;100.00
62103;BME280;48077;48.104;11.702;2023-01-29T01:22:20;96352.72;;;-2.05;100.00
62103;BME280;48077;48.104;11.702;2023-01-29T01:24:44;96381.22;;;-1.92;100.00
62103;BME280;48077;48.104;11.702;2023-01-29T01:27:07;96379.84;;;-1.96;100.00
62103;BME280;48077;48.104;11.702;2023-01-29T01:29:30;96382.63;;;-1.97;100.00
62103;BME280;48077;48.104;11.702;2023-01-29T01:31:54;96358.34;;;-2.09;100.00
62103;BME280;48077;48.104;11.702;2023-01-29T01:34:17;96373.25;;;-2.00;100.00
62103;BME280;48077;48.104;11.702;2023-01-29T01:36:41;96372.56;;;-2.02;100.00
62103;BME280;48077;48.104;11.702;2023-01-29T01:39:04;96365.94;;;-2.06;100.00
62103;BME280;48077;48.104;11.702;2023-01-29T01:41:28;96380.13;;;-1.99;100.00
62103;BME280;48077;48.104;11.702;2023-01-29T01:43:58;96371.72;;;-2.03;100.00
62103;BME280;48077;48.104;11.702;2023-01-29T01:46:21;96373.25;;;-2.00;100.00
62103;BME280;48077;48.104;11.702;2023-01-29T01:48:48;96374.06;;;-1.99;100.00
62103;BME280;48077;48.104;11.702;2023-01-29T01:51:13;96360.16;;;-2.10;100.00
62103;BME280;48077;48.104;11.702;2023-01-29T01:53:56;96367.72;;;-2.07;100.00
62103;BME280;48077;48.104;11.702;2023-01-29T01:56:27;96360.97;;;-2.09;100.00
62103;BME280;48077;48.104;11.702;2023-01-29T01:59:04;96354.09;;;-2.10;100.00
62103;BME280;48077;48.104;11.702;2023-01-29T02:01:29;96373.38;;;-2.01;100.00
62103;BME280;48077;48.104;11.702;2023-01-29T02:04:07;96372.28;;;-1.99;100.00
62103;BME280;48077;48.104;11.702;2023-01-29T02:06:51;96369.94;;;-2.02;100.00
62103;BME280;48077;48.104;11.702;2023-01-29T02:09:38;96372.13;;;-2.07;100.00
62103;BME280;48077;48.104;11.702;2023-01-29T02:12:06;96363.84;;;-2.12;100.00
62103;BME280;48077;48.104;11.702;2023-01-29T02:14:31;96376.13;;;-2.03;100.00
62103;BME280;48077;48.104;11.702;2023-01-29T02:16:59;96373.34;;;-2.11;100.00
62103;BME280;48077;48.104;11.702;2023-01-29T02:19:59;96387.28;;;-2.01;100.00
62103;BME280;48077;48.104;11.702;2023-01-29T02:22:40;96389.06;;;-2.01;100.00
62103;BME280;48077;48.104;11.702;2023-01-29T02:28:41;96380.25;;;-2.00;100.00
62103;BME280;48077;48.104;11.702;2023-01-29T02:31:28;96379.00;;;-2.06;100.00
62103;BME280;48077;48.104;11.702;2023-01-29T02:39:29;96371.88;;;-2.04;100.00
62103;BME280;48077;48.104;11.702;2023-01-29T02:42:00;96376.81;;;-2.01;100.00
62103;BME280;48077;48.104;11.702;2023-01-29T02:47:10;96357.94;;;-2.14;100.00
62103;BME280;48077;48.104;11.702;2023-01-29T02:49:51;96360.03;;;-2.08;100.00
62103;BME280;48077;48.104;11.702;2023-01-29T02:52:25;96355.75;;;-2.09;100.00
62103;BME280;48077;48.104;11.702;2023-01-29T02:55:11;96356.44;;;-2.07;100.00
62103;BME280;48077;48.104;11.702;2023-01-29T02:57:37;96355.03;;;-2.11;100.00
62103;BME280;48077;48.104;11.702;2023-01-29T03:00:21;96358.09;;;-2.06;100.00
62103;BME280;48077;48.104;11.702;2023-01-29T03:05:15;96356.03;;;-2.03;100.00
62103;BME280;48077;48.104;11.702;2023-01-29T03:07:45;96358.63;;;-2.03;100.00
62103;BME280;48077;48.104;11.702;2023-01-29T03:10:32;96360.44;;;-2.03;100.00
62103;BME280;48077;48.104;11.702;2023-01-29T03:13:02;96341.84;;;-2.10;100.00
62103;BME280;48077;48.104;11.702;2023-01-29T03:15:31;96358.50;;;-2.01;100.00
62103;BME280;48077;48.104;11.702;2023-01-29T03:18:08;96355.75;;;-2.09;100.00
62103;BME280;48077;48.104;11.702;2023-01-29T03:20:40;96357.94;;;-2.05;100.00
62103;BME280;48077;48.104;11.702;2023-01-29T03:23:15;96361.13;;;-2.01;100.00
62103;BME280;48077;48.104;11.702;2023-01-29T03:25:41;96361.00;;;-1.99;100.00
62103;BME280;48077;48.104;11.702;2023-01-29T03:28:26;96345.41;;;-2.11;100.00
62103;BME280;48077;48.104;11.702;2023-01-29T03:31:11;96356.31;;;-2.06;100.00
62103;BME280;48077;48.104;11.702;2023-01-29T03:34:04;96364.03;;;-2.04;100.00
62103;BME280;48077;48.104;11.702;2023-01-29T03:36:36;96367.47;;;-2.04;100.00
62103;BME280;48077;48.104;11.702;2023-01-29T03:39:02;96362.22;;;-2.04;100.00
62103;BME280;48077;48.104;11.702;2023-01-29T03:41:35;96356.84;;;-2.12;100.00
62103;BME280;48077;48.104;11.702;2023-01-29T03:46:35;96368.97;;;-2.01;100.00
62103;BME280;48077;48.104;11.702;2023-01-29T03:49:11;96357.41;;;-2.08;100.00
62103;BME280;48077;48.104;11.702;2023-01-29T03:51:52;96350.38;;;-2.08;100.00
62103;BME280;48077;48.104;11.702;2023-01-29T03:54:24;96360.03;;;-1.98;100.00
62103;BME280;48077;48.104;11.702;2023-01-29T03:57:16;96351.78;;;-2.04;100.00
62103;BME280;48077;48.104;11.702;2023-01-29T04:02:40;96346.41;;;-2.02;100.00
62103;BME280;48077;48.104;11.702;2023-01-29T04:05:09;96344.06;;;-2.05;100.00
62103;BME280;48077;48.104;11.702;2023-01-29T04:07:34;96331.81;;;-2.05;100.00
62103;BME280;48077;48.104;11.702;2023-01-29T04:10:11;96341.19;;;-2.02;100.00
62103;BME280;48077;48.104;11.702;2023-01-29T04:12:44;96330.72;;;-2.02;100.00
62103;BME280;48077;48.104;11.702;2023-01-29T04:15:12;96318.47;;;-2.01;100.00
62103;BME280;48077;48.104;11.702;2023-01-29T04:17:42;96321.34;;;-2.05;100.00
62103;BME280;48077;48.104;11.702;2023-01-29T04:20:08;96329.06;;;-2.03;100.00
62103;BME280;48077;48.104;11.702;2023-01-29T04:22:34;96336.91;;;-2.03;100.00
62103;BME280;48077;48.104;11.702;2023-01-29T04:25:02;96325.34;;;-2.10;100.00
62103;BME280;48077;48.104;11.702;2023-01-29T04:33:34;96330.97;;;-2.05;100.00
62103;BME280;48077;48.104;11.702;2023-01-29T04:36:15;96329.59;;;-2.09;100.00
62103;BME280;48077;48.104;11.702;2023-01-29T04:41:32;96322.56;;;-2.18;100.00
62103;BME280;48077;48.104;11.702;2023-01-29T04:47:05;96322.00;;;-2.22;100.00
62103;BME280;48077;48.104;11.702;2023-01-29T04:49:41;96332.31;;;-2.20;100.00
62103;BME280;48077;48.104;11.702;2023-01-29T04:52:14;96333.28;;;-2.21;100.00
62103;BME280;48077;48.104;11.702;2023-01-29T04:54:49;96340.00;;;-2.19;100.00
62103;BME280;48077;48.104;11.702;2023-01-29T04:59:50;96329.72;;;-2.20;100.00
62103;BME280;48077;48.104;11.702;2023-01-29T05:02:15;96332.88;;;-2.17;100.00
62103;BME280;48077;48.104;11.702;2023-01-29T05:04:42;96328.09;;;-2.12;100.00
62103;BME280;48077;48.104;11.702;2023-01-29T05:07:10;96324.09;;;-2.16;100.00
62103;BME280;48077;48.104;11.702;2023-01-29T05:09:36;96333.72;;;-2.07;100.00
62103;BME280;48077;48.104;11.702;2023-01-29T05:12:02;96318.56;;;-2.13;100.00
62103;BME280;48077;48.104;11.702;2023-01-29T05:14:29;96328.09;;;-2.12;100.00
62103;BME280;48077;48.104;11.702;2023-01-29T05:16:57;96345.72;;;-2.04;100.00
62103;BME280;48077;48.104;11.702;2023-01-29T05:19:22;96347.78;;;-2.08;100.00
62103;BME280;48077;48.104;11.702;2023-01-29T05:21:48;96331.47;;;-2.21;100.00
62103;BME280;48077;48.104;11.702;2023-01-29T05:24:21;96349.41;;;-2.16;100.00
62103;BME280;48077;48.104;11.702;2023-01-29T05:26:47;96348.13;;;-2.22;100.00
62103;BME280;48077;48.104;11.702;2023-01-29T05:29:30;96356.13;;;-2.14;100.00
62103;BME280;48077;48.104;11.702;2023-01-29T05:31:53;96358.63;;;-2.12;100.00
62103;BME280;48077;48.104;11.702;2023-01-29T05:34:17;96352.00;;;-2.16;100.00
62103;BME280;48077;48.104;11.702;2023-01-29T05:36:40;96363.16;;;-2.14;100.00
62103;BME280;48077;48.104;11.702;2023-01-29T05:39:04;96362.47;;;-2.16;100.00
62103;BME280;48077;48.104;11.702;2023-01-29T05:41:27;96367.69;;;-2.16;100.00
62103;BME280;48077;48.104;11.702;2023-01-29T05:43:50;96357.31;;;-2.28;100.00
62103;BME280;48077;48.104;11.702;2023-01-29T05:46:14;96370.69;;;-2.21;100.00
62103;BME280;48077;48.104;11.702;2023-01-29T05:48:37;96375.22;;;-2.23;100.00
62103;BME280;48077;48.104;11.702;2023-01-29T05:51:01;96383.38;;;-2.16;100.00
62103;BME280;48077;48.104;11.702;2023-01-29T05:53:25;96369.16;;;-2.24;100.00
62103;BME280;48077;48.104;11.702;2023-01-29T05:55:48;96384.44;;;-2.19;100.00
62103;BME280;48077;48.104;11.702;2023-01-29T05:58:12;96385.28;;;-2.18;100.00
62103;BME280;48077;48.104;11.702;2023-01-29T06:00:35;96388.03;;;-2.20;100.00
62103;BME280;48077;48.104;11.702;2023-01-29T06:02:58;96359.13;;;-2.28;100.00
62103;BME280;48077;48.104;11.702;2023-01-29T06:05:22;96367.94;;;-2.19;100.00
62103;BME280;48077;48.104;11.702;2023-01-29T06:07:45;96372.22;;;-2.18;100.00
62103;BME280;48077;48.104;11.702;2023-01-29T06:10:13;96366.81;;;-2.27;100.00
62103;BME280;48077;48.104;11.702;2023-01-29T06:12:36;96371.78;;;-2.24;100.00
62103;BME280;48077;48.104;11.702;2023-01-29T06:15:00;96379.38;;;-2.20;100.00
62103;BME280;48077;48.104;11.702;2023-01-29T06:17:23;96360.63;;;-2.26;100.00
62103;BME280;48077;48.104;11.702;2023-01-29T06:19:46;96369.03;;;-2.22;100.00
62103;BME280;48077;48.104;11.702;2023-01-29T06:22:10;96357.88;;;-2.24;100.00
62103;BME280;48077;48.104;11.702;2023-01-29T06:24:33;96368.34;;;-2.24;100.00
62103;BME280;48077;48.104;11.702;2023-01-29T06:26:56;96364.47;;;-2.30;100.00
62103;BME280;48077;48.104;11.702;2023-01-29T06:29:20;96360.72;;;-2.37;100.00
62103;BME280;48077;48.104;11.702;2023-01-29T06:31:43;96382.22;;;-2.24;100.00
62103;BME280;48077;48.104;11.702;2023-01-29T06:34:07;96371.78;;;-2.24;100.00
62103;BME280;48077;48.104;11.702;2023-01-29T06:36:30;96377.00;;;-2.24;100.00
62103;BME280;48077;48.104;11.702;2023-01-29T06:38:54;96375.66;;;-2.18;100.00
62103;BME280;48077;48.104;11.702;2023-01-29T06:41:18;96384.19;;;-2.16;100.00
62103;BME280;48077;48.104;11.702;2023-01-29T06:43:45;96376.22;;;-2.14;100.00
62103;BME280;48077;48.104;11.702;2023-01-29T06:46:08;96385.84;;;-2.15;100.00
62103;BME280;48077;48.104;11.702;2023-01-29T06:48:32;96385.13;;;-2.17;100.00
62103;BME280;48077;48.104;11.702;2023-01-29T06:50:55;96382.81;;;-2.20;100.00
62103;BME280;48077;48.104;11.702;2023-01-29T06:53:23;96377.56;;;-2.20;100.00
62103;BME280;48077;48.104;11.702;2023-01-29T06:55:51;96392.72;;;-2.14;100.00
62103;BME280;48077;48.104;11.702;2023-01-29T06:58:15;96390.25;;;-2.15;100.00
62103;BME280;48077;48.104;11.702;2023-01-29T07:00:38;96380.75;;;-2.16;100.00
62103;BME280;48077;48.104;11.702;2023-01-29T07:03:02;96381.31;;;-2.13;100.00
62103;BME280;48077;48.104;11.702;2023-01-29T07:05:28;96370.72;;;-2.11;100.00
62103;BME280;48077;48.104;11.702;2023-01-29T07:07:51;96366.47;;;-2.12;100.00
62103;BME280;48077;48.104;11.702;2023-01-29T07:10:15;96362.06;;;-2.12;100.00
62103;BME280;48077;48.104;11.702;2023-01-29T07:12:38;96372.53;;;-2.12;100.00
62103;BME280;48077;48.104;11.702;2023-01-29T07:15:01;96394.81;;;-2.08;100.00
62103;BME280;48077;48.104;11.702;2023-01-29T07:17:25;96372.66;;;-2.13;100.00
62103;BME280;48077;48.104;11.702;2023-01-29T07:19:49;96374.84;;;-2.09;100.00
62103;BME280;48077;48.104;11.702;2023-01-29T07:22:12;96365.63;;;-2.13;100.00
62103;BME280;48077;48.104;11.702;2023-01-29T07:24:36;96369.63;;;-2.09;100.00
62103;BME280;48077;48.104;11.702;2023-01-29T07:26:59;96367.47;;;-2.04;100.00
62103;BME280;48077;48.104;11.702;2023-01-29T07:29:23;96361.13;;;-2.01;100.00
62103;BME280;48077;48.104;11.702;2023-01-29T07:31:46;96340.06;;;-2.09;100.00
62103;BME280;48077;48.104;11.702;2023-01-29T07:34:09;96366.22;;;-1.99;100.00
62103;BME280;48077;48.104;11.702;2023-01-29T07:36:33;96367.75;;;-1.97;100.00
62103;BME280;48077;48.104;11.702;2023-01-29T07:38:56;96356.88;;;-2.02;100.00
62103;BME280;48077;48.104;11.702;2023-01-29T07:41:20;96352.59;;;-2.03;100.00
62103;BME280;48077;48.104;11.702;2023-01-29T07:43:43;96354.38;;;-2.04;100.00
62103;BME280;48077;48.104;11.702;2023-01-29T07:46:07;96347.91;;;-2.09;98.20
62103;BME280;48077;48.104;11.702;2023-01-29T07:48:30;96355.50;;;-2.06;97.61
62103;BME280;48077;48.104;11.702;2023-01-29T07:50:54;96328.34;;;-2.15;97.84
62103;BME280;48077;48.104;11.702;2023-01-29T07:53:18;96351.38;;;-1.99;97.97
62103;BME280;48077;48.104;11.702;2023-01-29T07:55:44;96342.94;;;-2.03;97.65
62103;BME280;48077;48.104;11.702;2023-01-29T07:58:07;96329.22;;;-1.95;98.09
62103;BME280;48077;48.104;11.702;2023-01-29T08:00:31;96336.13;;;-1.84;98.48
62103;BME280;48077;48.104;11.702;2023-01-29T08:03:12;96332.94;;;-1.88;98.86
62103;BME280;48077;48.104;11.702;2023-01-29T08:05:38;96320.97;;;-1.90;98.92
62103;BME280;48077;48.104;11.702;2023-01-29T08:08:01;96333.09;;;-1.79;99.11
62103;BME280;48077;48.104;11.702;2023-01-29T08:10:25;96333.78;;;-1.77;98.57
62103;BME280;48077;48.104;11.702;2023-01-29T08:12:59;96332.53;;;-1.73;98.45
62103;BME280;48077;48.104;11.702;2023-01-29T08:15:23;96332.84;;;-1.76;97.43
62103;BME280;48077;48.104;11.702;2023-01-29T08:17:46;96335.59;;;-1.68;97.28
62103;BME280;48077;48.104;11.702;2023-01-29T08:20:10;96334.38;;;-1.64;97.36
62103;BME280;48077;48.104;11.702;2023-01-29T08:22:34;96324.69;;;-1.73;96.63
62103;BME280;48077;48.104;11.702;2023-01-29T08:24:57;96343.72;;;-1.61;97.32
62103;BME280;48077;48.104;11.702;2023-01-29T08:27:20;96327.06;;;-1.70;96.75
62103;BME280;48077;48.104;11.702;2023-01-29T08:29:44;96339.19;;;-1.59;97.63
62103;BME280;48077;48.104;11.702;2023-01-29T08:32:10;96341.66;;;-1.58;97.68
62103;BME280;48077;48.104;11.702;2023-01-29T08:34:33;96346.75;;;-1.56;97.91
62103;BME280;48077;48.104;11.702;2023-01-29T08:36:56;96344.97;;;-1.56;97.32
62103;BME280;48077;48.104;11.702;2023-01-29T08:39:20;96348.66;;;-1.58;96.36
62103;BME280;48077;48.104;11.702;2023-01-29T08:41:43;96348.25;;;-1.64;95.21
62103;BME280;48077;48.104;11.702;2023-01-29T08:44:07;96362.03;;;-1.61;94.88
62103;BME280;48077;48.104;11.702;2023-01-29T08:46:30;96363.97;;;-1.64;94.75
62103;BME280;48077;48.104;11.702;2023-01-29T08:48:54;96369.75;;;-1.60;94.34
62103;BME280;48077;48.104;11.702;2023-01-29T08:51:17;96371.69;;;-1.62;94.36
62103;BME280;48077;48.104;11.702;2023-01-29T08:53:41;96374.84;;;-1.58;93.83
62103;BME280;48077;48.104;11.702;2023-01-29T08:56:04;96383.66;;;-1.59;92.71
62103;BME280;48077;48.104;11.702;2023-01-29T08:58:28;96372.38;;;-1.60;92.64
62103;BME280;48077;48.104;11.702;2023-01-29T09:00:51;96371.53;;;-1.60;92.77
62103;BME280;48077;48.104;11.702;2023-01-29T09:03:14;96381.31;;;-1.53;92.41
62103;BME280;48077;48.104;11.702;2023-01-29T09:05:39;96386.31;;;-1.50;92.17
62103;BME280;48077;48.104;11.702;2023-01-29T09:08:03;96382.72;;;-1.49;92.23
62103;BME280;48077;48.104;11.702;2023-01-29T09:10:26;96387.81;;;-1.47;91.95
62103;BME280;48077;48.104;11.702;2023-01-29T09:12:50;96385.16;;;-1.57;91.04
62103;BME280;48077;48.104;11.702;2023-01-29T09:15:13;96396.19;;;-1.53;91.35
62103;BME280;48077;48.104;11.702;2023-01-29T09:17:36;96408.59;;;-1.55;90.39
62103;BME280;48077;48.104;11.702;2023-01-29T09:20:00;96411.09;;;-1.54;90.13
62103;BME280;48077;48.104;11.702;2023-01-29T09:22:23;96411.47;;;-1.58;90.08
62103;BME280;48077;48.104;11.702;2023-01-29T09:24:46;96395.63;;;-1.67;90.17
62103;BME280;48077;48.104;11.702;2023-01-29T09:27:10;96406.63;;;-1.63;90.81
62103;BME280;48077;48.104;11.702;2023-01-29T09:29:33;96418.25;;;-1.56;91.12
62103;BME280;48077;48.104;11.702;2023-01-29T09:31:57;96413.13;;;-1.57;91.07
62103;BME280;48077;48.104;11.702;2023-01-29T09:34:20;96390.09;;;-1.73;91.36
62103;BME280;48077;48.104;11.702;2023-01-29T09:36:43;96413.16;;;-1.48;91.19
62103;BME280;48077;48.104;11.702;2023-01-29T09:39:07;96409.44;;;-1.45;91.30
62103;BME280;48077;48.104;11.702;2023-01-29T09:44:15;96413.16;;;-1.48;89.97
62103;BME280;48077;48.104;11.702;2023-01-29T09:46:45;96431.63;;;-1.39;87.50
62103;BME280;48077;48.104;11.702;2023-01-29T09:49:14;96428.44;;;-1.43;85.72
62103;BME280;48077;48.104;11.702;2023-01-29T09:51:43;96426.63;;;-1.62;86.63
62103;BME280;48077;48.104;11.702;2023-01-29T09:54:17;96423.31;;;-1.64;87.35
62103;BME280;48077;48.104;11.702;2023-01-29T09:56:44;96436.00;;;-1.50;87.48
62103;BME280;48077;48.104;11.702;2023-01-29T09:59:10;96438.34;;;-1.47;87.22
62103;BME280;48077;48.104;11.702;2023-01-29T10:02:17;96438.09;;;-1.44;86.85
62103;BME280;48077;48.104;11.702;2023-01-29T10:04:50;96436.28;;;-1.43;86.27
62103;BME280;48077;48.104;11.702;2023-01-29T10:10:22;96435.63;;;-1.35;87.30
62103;BME280;48077;48.104;11.702;2023-01-29T10:12:56;96422.25;;;-1.32;87.52
62103;BME280;48077;48.104;11.702;2023-01-29T10:15:45;96420.03;;;-1.27;87.62
62103;BME280;48077;48.104;11.702;2023-01-29T10:21:33;96406.97;;;-1.27;86.30
62103;BME280;48077;48.104;11.702;2023-01-29T10:26:50;96398.03;;;-1.25;86.88
62103;BME280;48077;48.104;11.702;2023-01-29T10:29:18;96402.16;;;-1.22;85.88
62103;BME280;48077;48.104;11.702;2023-01-29T10:31:43;96408.34;;;-1.13;86.67
62103;BME280;48077;48.104;11.702;2023-01-29T10:34:13;96415.09;;;-1.11;86.71
62103;BME280;48077;48.104;11.702;2023-01-29T10:36:46;96401.88;;;-1.09;86.51
62103;BME280;48077;48.104;11.702;2023-01-29T10:39:21;96407.13;;;-1.09;86.71
62103;BME280;48077;48.104;11.702;2023-01-29T10:52:38;96405.88;;;-1.05;85.01
62103;BME280;48077;48.104;11.702;2023-01-29T10:55:45;96403.94;;;-1.03;86.25
62103;BME280;48077;48.104;11.702;2023-01-29T11:01:03;96398.84;;;-0.95;86.84
62103;BME280;48077;48.104;11.702;2023-01-29T11:03:31;96394.44;;;-0.94;85.38
62103;BME280;48077;48.104;11.702;2023-01-29T11:08:39;96397.03;;;-0.94;85.09
62103;BME280;48077;48.104;11.702;2023-01-29T11:11:15;96364.41;;;-1.10;85.20
62103;BME280;48077;48.104;11.702;2023-01-29T11:14:00;96392.22;;;-0.99;87.13
62103;BME280;48077;48.104;11.702;2023-01-29T11:16:29;96368.81;;;-1.10;87.51
62103;BME280;48077;48.104;11.702;2023-01-29T11:18:58;96371.28;;;-1.09;87.31
62103;BME280;48077;48.104;11.702;2023-01-29T11:21:23;96375.00;;;-1.11;87.48
62103;BME280;48077;48.104;11.702;2023-01-29T11:23:47;96381.50;;;-1.06;87.78
62103;BME280;48077;48.104;11.702;2023-01-29T11:26:12;96380.38;;;-1.03;87.80
62103;BME280;48077;48.104;11.702;2023-01-29T11:28:44;96382.19;;;-1.04;87.80
62103;BME280;48077;48.104;11.702;2023-01-29T11:31:21;96368.13;;;-1.12;88.31
62103;BME280;48077;48.104;11.702;2023-01-29T11:33:45;96361.66;;;-1.08;88.21
62103;BME280;48077;48.104;11.702;2023-01-29T11:36:29;96372.13;;;-1.08;86.78
62103;BME280;48077;48.104;11.702;2023-01-29T11:39:17;96367.16;;;-1.21;87.23
62103;BME280;48077;48.104;11.702;2023-01-29T11:41:43;96373.91;;;-1.09;87.76
62103;BME280;48077;48.104;11.702;2023-01-29T11:44:32;96370.47;;;-1.09;87.70
62103;BME280;48077;48.104;11.702;2023-01-29T11:47:09;96356.81;;;-1.13;86.52
62103;BME280;48077;48.104;11.702;2023-01-29T11:49:33;96359.16;;;-1.10;86.76
62103;BME280;48077;48.104;11.702;2023-01-29T11:51:59;96355.03;;;-1.12;87.16
62103;BME280;48077;48.104;11.702;2023-01-29T11:54:27;96350.06;;;-1.06;87.50
62103;BME280;48077;48.104;11.702;2023-01-29T11:56:53;96333.13;;;-1.02;87.73
62103;BME280;48077;48.104;11.702;2023-01-29T11:59:42;96315.19;;;-0.96;87.63
62103;BME280;48077;48.104;11.702;2023-01-29T12:02:24;96288.72;;;-1.03;86.54
62103;BME280;48077;48.104;11.702;2023-01-29T12:04:50;96294.34;;;-0.98;87.14
62103;BME280;48077;48.104;11.702;2023-01-29T12:07:15;96287.88;;;-0.94;87.19
62103;BME280;48077;48.104;11.702;2023-01-29T12:09:40;96273.69;;;-1.01;86.31
62103;BME280;48077;48.104;11.702;2023-01-29T12:12:40;96272.59;;;-0.98;87.04
62103;BME280;48077;48.104;11.702;2023-01-29T12:15:21;96264.72;;;-0.89;86.97
62103;BME280;48077;48.104;11.702;2023-01-29T12:18:29;96260.53;;;-0.82;86.34
62103;BME280;48077;48.104;11.702;2023-01-29T12:20:58;96260.53;;;-0.82;86.05
62103;BME280;48077;48.104;11.702;2023-01-29T12:23:35;96276.66;;;-0.67;85.98
62103;BME280;48077;48.104;11.702;2023-01-29T12:26:12;96279.91;;;-0.65;84.82
62103;BME280;48077;48.104;11.702;2023-01-29T12:28:49;96257.53;;;-0.77;84.56
62103;BME280;48077;48.104;11.702;2023-01-29T12:33:59;96286.28;;;-0.67;84.19
62103;BME280;48077;48.104;11.702;2023-01-29T12:36:41;96290.16;;;-0.71;84.28
62103;BME280;48077;48.104;11.702;2023-01-29T12:39:09;96291.97;;;-0.72;83.88
62103;BME280;48077;48.104;11.702;2023-01-29T12:42:08;96295.69;;;-0.74;84.05
62103;BME280;48077;48.104;11.702;2023-01-29T12:44:39;96287.72;;;-0.83;83.31
62103;BME280;48077;48.104;11.702;2023-01-29T12:47:06;96276.00;;;-0.88;83.30
62103;BME280;48077;48.104;11.702;2023-01-29T12:49:34;96267.50;;;-1.00;83.13
62103;BME280;48077;48.104;11.702;2023-01-29T12:52:11;96265.28;;;-0.95;83.77
62103;BME280;48077;48.104;11.702;2023-01-29T12:54:46;96267.75;;;-0.93;84.81
62103;BME280;48077;48.104;11.702;2023-01-29T12:57:21;96260.44;;;-0.90;85.53
62103;BME280;48077;48.104;11.702;2023-01-29T13:00:03;96256.72;;;-0.87;85.46
62103;BME280;48077;48.104;11.702;2023-01-29T13:02:33;96249.81;;;-0.88;85.61
62103;BME280;48077;48.104;11.702;2023-01-29T13:05:02;96251.06;;;-0.83;86.44
62103;BME280;48077;48.104;11.702;2023-01-29T13:07:32;96243.88;;;-0.80;86.50
62103;BME280;48077;48.104;11.702;2023-01-29T13:10:04;96236.97;;;-0.82;86.73
62103;BME280;48077;48.104;11.702;2023-01-29T13:12:30;96228.03;;;-0.79;86.46
62103;BME280;48077;48.104;11.702;2023-01-29T13:14:58;96229.66;;;-0.78;86.08
62103;BME280;48077;48.104;11.702;2023-01-29T13:17:46;96235.88;;;-0.79;85.87
62103;BME280;48077;48.104;11.702;2023-01-29T13:20:26;96218.38;;;-0.78;85.82
62103;BME280;48077;48.104;11.702;2023-01-29T13:22:53;96204.84;;;-0.84;85.90
62103;BME280;48077;48.104;11.702;2023-01-29T13:25:19;96212.69;;;-0.74;86.13
62103;BME280;48077;48.104;11.702;2023-01-29T13:27:45;96205.53;;;-0.82;85.18
62103;BME280;48077;48.104;11.702;2023-01-29T13:30:24;96221.78;;;-0.78;85.16
62103;BME280;48077;48.104;11.702;2023-01-29T13:32:50;96209.81;;;-0.80;85.01
62103;BME280;48077;48.104;11.702;2023-01-29T13:35:17;96205.84;;;-0.85;84.39
62103;BME280;48077;48.104;11.702;2023-01-29T13:37:51;96202.41;;;-0.85;84.85
62103;BME280;48077;48.104;11.702;2023-01-29T13:40:28;96201.41;;;-0.84;84.65
62103;BME280;48077;48.104;11.702;2023-01-29T13:42:53;96206.97;;;-0.87;84.17
62103;BME280;48077;48.104;11.702;2023-01-29T13:45:25;96199.25;;;-0.89;84.52
62103;BME280;48077;48.104;11.702;2023-01-29T13:47:51;96197.16;;;-0.85;85.10
62103;BME280;48077;48.104;11.702;2023-01-29T13:50:27;96185.31;;;-0.89;84.71
62103;BME280;48077;48.104;11.702;2023-01-29T13:52:55;96189.72;;;-0.90;84.96
62103;BME280;48077;48.104;11.702;2023-01-29T13:55:26;96191.63;;;-0.82;85.82
62103;BME280;48077;48.104;11.702;2023-01-29T13:57:54;96191.63;;;-0.82;85.55
62103;BME280;48077;48.104;11.702;2023-01-29T14:02:43;96185.72;;;-0.94;85.54